sensor_id;sensor_type;location;lat;lon;timestamp;temperature;humidity
47520;DHT22;33252;48.122;11.538;2022-11-27T00:01:46;1.70;99.90
47520;DHT22;33252;48.122;11.538;2022-11-27T00:04:11;1.60;99.90
47520;DHT22;33252;48.122;11.538;2022-11-27T00:06:39;1.40;99.90
47520;DHT22;33252;48.122;11.538;2022-11-27T00:09:09;1.30;99.90
47520;DHT22;33252;48.122;11.538;2022-11-27T00:11:35;1.30;99.90
47520;DHT22;33252;48.122;11.538;2022-11-27T00:14:04;1.30;99.90
47520;DHT22;33252;48.122;11.538;2022-11-27T00:16:29;1.50;99.90
47520;DHT22;33252;48.122;11.538;2022-11-27T00:18:55;1.60;99.90
47520;DHT22;33252;48.122;11.538;2022-11-27T00:21:24;1.60;99.90
47520;DHT22;33252;48.122;11.538;2022-11-27T00:23:51;1.50;99.90
47520;DHT22;33252;48.122;11.538;2022-11-27T00:26:17;1.40;99.90
47520;DHT22;33252;48.122;11.538;2022-11-27T00:28:43;1.30;99.90
47520;DHT22;33252;48.122;11.538;2022-11-27T00:31:17;1.30;99.90
47520;DHT22;33252;48.122;11.538;2022-11-27T00:33:44;1.30;99.90
47520;DHT22;33252;48.122;11.538;2022-11-27T00:36:11;1.30;99.90
47520;DHT22;33252;48.122;11.538;2022-11-27T00:38:37;1.30;99.90
47520;DHT22;33252;48.122;11.538;2022-11-27T00:41:06;1.30;99.90
47520;DHT22;33252;48.122;11.538;2022-11-27T00:43:33;1.30;99.90
47520;DHT22;33252;48.122;11.538;2022-11-27T00:45:59;1.40;99.90
47520;DHT22;33252;48.122;11.538;2022-11-27T00:48:25;1.50;99.90
47520;DHT22;33252;48.122;11.538;2022-11-27T00:50:51;1.40;99.90
47520;DHT22;33252;48.122;11.538;2022-11-27T00:53:17;1.50;99.90
47520;DHT22;33252;48.122;11.538;2022-11-27T00:55:45;1.40;99.90
47520;DHT22;33252;48.122;11.538;2022-11-27T00:58:10;1.50;99.90
47520;DHT22;33252;48.122;11.538;2022-11-27T01:00:36;1.60;99.90
47520;DHT22;33252;48.122;11.538;2022-11-27T01:03:01;1.40;99.90
47520;DHT22;33252;48.122;11.538;2022-11-27T01:05:27;1.20;99.90
47520;DHT22;33252;48.122;11.538;2022-11-27T01:07:53;1.20;99.90
47520;DHT22;33252;48.122;11.538;2022-11-27T01:10:19;1.20;99.90
47520;DHT22;33252;48.122;11.538;2022-11-27T01:12:48;1.10;99.90
47520;DHT22;33252;48.122;11.538;2022-11-27T01:15:14;1.10;99.90
47520;DHT22;33252;48.122;11.538;2022-11-27T01:17:39;1.00;99.90
47520;DHT22;33252;48.122;11.538;2022-11-27T01:20:06;1.00;99.90
47520;DHT22;33252;48.122;11.538;2022-11-27T01:22:32;1.00;99.90
47520;DHT22;33252;48.122;11.538;2022-11-27T01:24:58;1.10;99.90
47520;DHT22;33252;48.122;11.538;2022-11-27T01:27:23;1.20;99.90
47520;DHT22;33252;48.122;11.538;2022-11-27T01:29:49;1.20;99.90
47520;DHT22;33252;48.122;11.538;2022-11-27T01:32:15;1.10;99.90
47520;DHT22;33252;48.122;11.538;2022-11-27T01:34:40;1.10;99.90
47520;DHT22;33252;48.122;11.538;2022-11-27T01:37:06;1.00;99.90
47520;DHT22;33252;48.122;11.538;2022-11-27T01:39:32;1.00;99.90
47520;DHT22;33252;48.122;11.538;2022-11-27T01:41:57;1.00;99.90
47520;DHT22;33252;48.122;11.538;2022-11-27T01:49:37;0.90;99.90
47520;DHT22;33252;48.122;11.538;2022-11-27T01:54:51;1.10;99.90
47520;DHT22;33252;48.122;11.538;2022-11-27T01:57:23;1.10;99.90
47520;DHT22;33252;48.122;11.538;2022-11-27T01:59:52;1.00;99.90
47520;DHT22;33252;48.122;11.538;2022-11-27T02:02:19;0.90;99.90
47520;DHT22;33252;48.122;11.538;2022-11-27T02:04:45;0.70;99.90
47520;DHT22;33252;48.122;11.538;2022-11-27T02:07:10;0.70;99.90
47520;DHT22;33252;48.122;11.538;2022-11-27T02:09:36;0.80;99.90
47520;DHT22;33252;48.122;11.538;2022-11-27T02:12:14;0.80;99.90
47520;DHT22;33252;48.122;11.538;2022-11-27T02:26:10;0.60;99.90
47520;DHT22;33252;48.122;11.538;2022-11-27T02:31:19;0.60;99.90
47520;DHT22;33252;48.122;11.538;2022-11-27T02:33:51;0.70;99.90
47520;DHT22;33252;48.122;11.538;2022-11-27T02:36:21;0.80;99.90
47520;DHT22;33252;48.122;11.538;2022-11-27T02:39:01;0.80;99.90
47520;DHT22;33252;48.122;11.538;2022-11-27T02:41:31;0.80;99.90
47520;DHT22;33252;48.122;11.538;2022-11-27T02:43:59;0.70;99.90
47520;DHT22;33252;48.122;11.538;2022-11-27T02:46:27;0.70;99.90
47520;DHT22;33252;48.122;11.538;2022-11-27T02:48:56;0.60;99.90
47520;DHT22;33252;48.122;11.538;2022-11-27T02:51:27;0.50;99.90
47520;DHT22;33252;48.122;11.538;2022-11-27T02:53:56;0.50;99.90
47520;DHT22;33252;48.122;11.538;2022-11-27T02:56:25;0.70;99.90
47520;DHT22;33252;48.122;11.538;2022-11-27T02:58:55;0.90;99.90
47520;DHT22;33252;48.122;11.538;2022-11-27T03:01:22;0.90;99.90
47520;DHT22;33252;48.122;11.538;2022-11-27T03:03:51;0.80;99.90
47520;DHT22;33252;48.122;11.538;2022-11-27T03:06:26;0.90;99.90
47520;DHT22;33252;48.122;11.538;2022-11-27T03:09:08;1.00;99.90
47520;DHT22;33252;48.122;11.538;2022-11-27T03:11:35;0.90;99.90
47520;DHT22;33252;48.122;11.538;2022-11-27T03:14:05;0.70;99.90
47520;DHT22;33252;48.122;11.538;2022-11-27T03:19:22;0.50;99.90
47520;DHT22;33252;48.122;11.538;2022-11-27T03:21:53;0.50;99.90
47520;DHT22;33252;48.122;11.538;2022-11-27T03:24:20;0.50;99.90
47520;DHT22;33252;48.122;11.538;2022-11-27T03:26:46;0.60;99.90
47520;DHT22;33252;48.122;11.538;2022-11-27T03:29:16;0.60;99.90
47520;DHT22;33252;48.122;11.538;2022-11-27T03:31:42;0.60;99.90
47520;DHT22;33252;48.122;11.538;2022-11-27T03:34:08;0.70;99.90
47520;DHT22;33252;48.122;11.538;2022-11-27T03:36:34;0.50;99.90
47520;DHT22;33252;48.122;11.538;2022-11-27T03:39:00;0.40;99.90
47520;DHT22;33252;48.122;11.538;2022-11-27T03:44:15;0.40;99.90
47520;DHT22;33252;48.122;11.538;2022-11-27T03:47:16;0.30;99.90
47520;DHT22;33252;48.122;11.538;2022-11-27T03:49:53;0.30;99.90
47520;DHT22;33252;48.122;11.538;2022-11-27T03:52:40;0.50;99.90
47520;DHT22;33252;48.122;11.538;2022-11-27T03:58:08;0.50;99.90
47520;DHT22;33252;48.122;11.538;2022-11-27T04:00:39;0.40;99.90
47520;DHT22;33252;48.122;11.538;2022-11-27T04:03:08;0.40;99.90
47520;DHT22;33252;48.122;11.538;2022-11-27T04:05:34;0.40;99.90
47520;DHT22;33252;48.122;11.538;2022-11-27T04:08:00;0.20;99.90
47520;DHT22;33252;48.122;11.538;2022-11-27T04:10:25;0.20;99.90
47520;DHT22;33252;48.122;11.538;2022-11-27T04:12:51;0.20;99.90
47520;DHT22;33252;48.122;11.538;2022-11-27T04:15:17;0.20;99.90
47520;DHT22;33252;48.122;11.538;2022-11-27T04:17:43;0.50;99.90
47520;DHT22;33252;48.122;11.538;2022-11-27T04:20:11;0.40;99.90
47520;DHT22;33252;48.122;11.538;2022-11-27T04:22:37;0.40;99.90
47520;DHT22;33252;48.122;11.538;2022-11-27T04:25:03;0.50;99.90
47520;DHT22;33252;48.122;11.538;2022-11-27T04:27:29;0.60;99.90
47520;DHT22;33252;48.122;11.538;2022-11-27T04:29:55;0.50;99.90
47520;DHT22;33252;48.122;11.538;2022-11-27T04:32:20;0.50;99.90
47520;DHT22;33252;48.122;11.538;2022-11-27T04:34:46;0.50;99.90
47520;DHT22;33252;48.122;11.538;2022-11-27T04:37:12;0.60;99.90
47520;DHT22;33252;48.122;11.538;2022-11-27T04:39:37;0.50;99.90
47520;DHT22;33252;48.122;11.538;2022-11-27T04:42:03;0.40;99.90
47520;DHT22;33252;48.122;11.538;2022-11-27T04:44:29;0.40;99.90
47520;DHT22;33252;48.122;11.538;2022-11-27T04:46:55;0.40;99.90
47520;DHT22;33252;48.122;11.538;2022-11-27T04:49:20;0.50;99.90
47520;DHT22;33252;48.122;11.538;2022-11-27T04:51:46;0.60;99.90
47520;DHT22;33252;48.122;11.538;2022-11-27T04:54:12;0.60;99.90
47520;DHT22;33252;48.122;11.538;2022-11-27T04:56:37;0.60;99.90
47520;DHT22;33252;48.122;11.538;2022-11-27T04:59:04;0.70;99.90
47520;DHT22;33252;48.122;11.538;2022-11-27T05:01:30;0.60;99.90
47520;DHT22;33252;48.122;11.538;2022-11-27T05:03:55;0.50;99.90
47520;DHT22;33252;48.122;11.538;2022-11-27T05:06:21;0.50;99.90
47520;DHT22;33252;48.122;11.538;2022-11-27T05:08:47;0.40;99.90
47520;DHT22;33252;48.122;11.538;2022-11-27T05:11:14;0.30;99.90
47520;DHT22;33252;48.122;11.538;2022-11-27T05:13:41;0.40;99.90
47520;DHT22;33252;48.122;11.538;2022-11-27T05:16:07;0.50;99.90
47520;DHT22;33252;48.122;11.538;2022-11-27T05:18:33;0.50;99.90
47520;DHT22;33252;48.122;11.538;2022-11-27T05:21:04;0.30;99.90
47520;DHT22;33252;48.122;11.538;2022-11-27T05:23:30;0.10;99.90
47520;DHT22;33252;48.122;11.538;2022-11-27T05:25:56;0.10;99.90
47520;DHT22;33252;48.122;11.538;2022-11-27T05:28:22;0.10;99.90
47520;DHT22;33252;48.122;11.538;2022-11-27T05:30:49;0.10;99.90
47520;DHT22;33252;48.122;11.538;2022-11-27T05:33:17;0.20;99.90
47520;DHT22;33252;48.122;11.538;2022-11-27T05:35:43;0.30;99.90
47520;DHT22;33252;48.122;11.538;2022-11-27T05:38:10;0.20;99.90
47520;DHT22;33252;48.122;11.538;2022-11-27T05:40:36;0.10;99.90
47520;DHT22;33252;48.122;11.538;2022-11-27T05:43:02;0.20;99.90
47520;DHT22;33252;48.122;11.538;2022-11-27T05:45:28;0.20;99.90
47520;DHT22;33252;48.122;11.538;2022-11-27T05:47:54;0.20;99.90
47520;DHT22;33252;48.122;11.538;2022-11-27T05:50:19;0.20;99.90
47520;DHT22;33252;48.122;11.538;2022-11-27T05:52:45;0.10;99.90
47520;DHT22;33252;48.122;11.538;2022-11-27T05:55:10;0.00;99.90
47520;DHT22;33252;48.122;11.538;2022-11-27T05:57:36;-0.10;99.90
47520;DHT22;33252;48.122;11.538;2022-11-27T06:00:04;0.10;99.90
47520;DHT22;33252;48.122;11.538;2022-11-27T06:02:30;0.20;99.90
47520;DHT22;33252;48.122;11.538;2022-11-27T06:04:56;0.00;99.90
47520;DHT22;33252;48.122;11.538;2022-11-27T06:07:22;0.10;99.90
47520;DHT22;33252;48.122;11.538;2022-11-27T06:09:48;0.00;99.90
47520;DHT22;33252;48.122;11.538;2022-11-27T06:12:14;0.00;99.90
47520;DHT22;33252;48.122;11.538;2022-11-27T06:14:39;0.00;99.90
47520;DHT22;33252;48.122;11.538;2022-11-27T06:17:05;-0.20;99.90
47520;DHT22;33252;48.122;11.538;2022-11-27T06:19:30;0.00;99.90
47520;DHT22;33252;48.122;11.538;2022-11-27T06:21:56;-0.30;99.90
47520;DHT22;33252;48.122;11.538;2022-11-27T06:24:22;-0.40;99.90
47520;DHT22;33252;48.122;11.538;2022-11-27T06:26:48;-0.30;99.90
47520;DHT22;33252;48.122;11.538;2022-11-27T06:29:13;-0.20;99.90
47520;DHT22;33252;48.122;11.538;2022-11-27T06:31:39;-0.30;99.90
47520;DHT22;33252;48.122;11.538;2022-11-27T06:34:05;-0.20;99.90
47520;DHT22;33252;48.122;11.538;2022-11-27T06:36:33;-0.10;99.90
47520;DHT22;33252;48.122;11.538;2022-11-27T06:39:00;-0.10;99.90
47520;DHT22;33252;48.122;11.538;2022-11-27T06:41:26;-0.10;99.90
47520;DHT22;33252;48.122;11.538;2022-11-27T06:43:53;-0.20;99.90
47520;DHT22;33252;48.122;11.538;2022-11-27T06:46:21;-0.30;99.90
47520;DHT22;33252;48.122;11.538;2022-11-27T06:48:49;-0.30;99.90
47520;DHT22;33252;48.122;11.538;2022-11-27T06:51:16;-0.30;99.90
47520;DHT22;33252;48.122;11.538;2022-11-27T06:53:43;-0.40;99.90
47520;DHT22;33252;48.122;11.538;2022-11-27T06:56:14;-0.30;99.90
47520;DHT22;33252;48.122;11.538;2022-11-27T06:58:40;-0.40;99.90
47520;DHT22;33252;48.122;11.538;2022-11-27T07:01:09;-0.30;99.90
47520;DHT22;33252;48.122;11.538;2022-11-27T07:03:36;-0.40;99.90
47520;DHT22;33252;48.122;11.538;2022-11-27T07:06:03;-0.30;99.90
47520;DHT22;33252;48.122;11.538;2022-11-27T07:08:29;-0.30;99.90
47520;DHT22;33252;48.122;11.538;2022-11-27T07:11:02;-0.30;99.90
47520;DHT22;33252;48.122;11.538;2022-11-27T07:13:29;-0.20;99.90
47520;DHT22;33252;48.122;11.538;2022-11-27T07:15:56;-0.10;99.90
47520;DHT22;33252;48.122;11.538;2022-11-27T07:18:23;-0.10;99.90
47520;DHT22;33252;48.122;11.538;2022-11-27T07:20:52;-0.10;99.90
47520;DHT22;33252;48.122;11.538;2022-11-27T07:23:18;0.00;99.90
47520;DHT22;33252;48.122;11.538;2022-11-27T07:25:44;0.10;99.90
47520;DHT22;33252;48.122;11.538;2022-11-27T07:28:09;0.10;99.90
47520;DHT22;33252;48.122;11.538;2022-11-27T07:30:35;0.10;99.90
47520;DHT22;33252;48.122;11.538;2022-11-27T07:33:01;0.00;99.90
47520;DHT22;33252;48.122;11.538;2022-11-27T07:35:26;0.10;99.90
47520;DHT22;33252;48.122;11.538;2022-11-27T07:37:52;0.20;99.90
47520;DHT22;33252;48.122;11.538;2022-11-27T07:40:18;0.30;99.90
47520;DHT22;33252;48.122;11.538;2022-11-27T07:42:43;0.30;99.90
47520;DHT22;33252;48.122;11.538;2022-11-27T07:45:10;0.40;99.90
47520;DHT22;33252;48.122;11.538;2022-11-27T07:47:36;0.40;99.90
47520;DHT22;33252;48.122;11.538;2022-11-27T07:50:03;0.40;99.90
47520;DHT22;33252;48.122;11.538;2022-11-27T07:52:30;0.50;99.90
47520;DHT22;33252;48.122;11.538;2022-11-27T07:54:55;0.60;99.90
47520;DHT22;33252;48.122;11.538;2022-11-27T07:57:21;0.60;99.90
47520;DHT22;33252;48.122;11.538;2022-11-27T07:59:46;0.70;99.90
47520;DHT22;33252;48.122;11.538;2022-11-27T08:02:12;0.80;99.90
47520;DHT22;33252;48.122;11.538;2022-11-27T08:04:38;0.80;99.90
47520;DHT22;33252;48.122;11.538;2022-11-27T08:07:04;0.90;99.90
47520;DHT22;33252;48.122;11.538;2022-11-27T08:09:30;0.90;99.90
47520;DHT22;33252;48.122;11.538;2022-11-27T08:11:56;0.90;99.90
47520;DHT22;33252;48.122;11.538;2022-11-27T08:14:21;1.00;99.90
47520;DHT22;33252;48.122;11.538;2022-11-27T08:16:47;0.90;99.90
47520;DHT22;33252;48.122;11.538;2022-11-27T08:19:12;1.00;99.90
47520;DHT22;33252;48.122;11.538;2022-11-27T08:21:38;1.00;99.90
47520;DHT22;33252;48.122;11.538;2022-11-27T08:24:04;1.10;99.90
47520;DHT22;33252;48.122;11.538;2022-11-27T08:26:30;1.00;99.90
47520;DHT22;33252;48.122;11.538;2022-11-27T08:28:56;1.00;99.90
47520;DHT22;33252;48.122;11.538;2022-11-27T08:31:22;1.10;99.90
47520;DHT22;33252;48.122;11.538;2022-11-27T08:33:48;1.10;99.90
47520;DHT22;33252;48.122;11.538;2022-11-27T08:36:14;1.20;99.90
47520;DHT22;33252;48.122;11.538;2022-11-27T08:38:40;1.20;99.90
47520;DHT22;33252;48.122;11.538;2022-11-27T08:41:07;1.30;99.90
47520;DHT22;33252;48.122;11.538;2022-11-27T08:43:33;1.30;99.90
47520;DHT22;33252;48.122;11.538;2022-11-27T08:46:00;1.30;99.90
47520;DHT22;33252;48.122;11.538;2022-11-27T08:48:27;1.40;99.90
47520;DHT22;33252;48.122;11.538;2022-11-27T08:50:53;1.50;99.90
47520;DHT22;33252;48.122;11.538;2022-11-27T08:53:19;1.60;99.90
47520;DHT22;33252;48.122;11.538;2022-11-27T08:55:45;1.60;99.90
47520;DHT22;33252;48.122;11.538;2022-11-27T08:58:10;1.80;99.90
47520;DHT22;33252;48.122;11.538;2022-11-27T09:00:37;1.80;99.90
47520;DHT22;33252;48.122;11.538;2022-11-27T09:03:03;1.90;99.90
47520;DHT22;33252;48.122;11.538;2022-11-27T09:05:30;1.90;99.90
47520;DHT22;33252;48.122;11.538;2022-11-27T09:07:56;2.10;99.90
47520;DHT22;33252;48.122;11.538;2022-11-27T09:10:22;2.20;99.90
47520;DHT22;33252;48.122;11.538;2022-11-27T09:12:48;2.10;99.90
47520;DHT22;33252;48.122;11.538;2022-11-27T09:15:14;2.20;99.90
47520;DHT22;33252;48.122;11.538;2022-11-27T09:17:40;2.30;99.90
47520;DHT22;33252;48.122;11.538;2022-11-27T09:20:07;2.40;99.90
47520;DHT22;33252;48.122;11.538;2022-11-27T09:22:33;2.50;99.90
47520;DHT22;33252;48.122;11.538;2022-11-27T09:24:59;2.70;99.90
47520;DHT22;33252;48.122;11.538;2022-11-27T09:27:25;2.70;99.90
47520;DHT22;33252;48.122;11.538;2022-11-27T09:29:54;2.50;99.90
47520;DHT22;33252;48.122;11.538;2022-11-27T09:32:21;2.40;99.90
47520;DHT22;33252;48.122;11.538;2022-11-27T09:34:47;2.60;99.90
47520;DHT22;33252;48.122;11.538;2022-11-27T09:37:15;2.90;99.90
47520;DHT22;33252;48.122;11.538;2022-11-27T09:39:41;3.10;99.90
47520;DHT22;33252;48.122;11.538;2022-11-27T09:42:15;3.20;99.90
47520;DHT22;33252;48.122;11.538;2022-11-27T09:44:57;3.20;99.90
47520;DHT22;33252;48.122;11.538;2022-11-27T09:47:35;3.10;99.90
47520;DHT22;33252;48.122;11.538;2022-11-27T09:50:09;3.00;99.90
47520;DHT22;33252;48.122;11.538;2022-11-27T09:52:45;2.90;99.90
47520;DHT22;33252;48.122;11.538;2022-11-27T09:55:24;3.00;99.90
47520;DHT22;33252;48.122;11.538;2022-11-27T09:58:15;3.20;99.90
47520;DHT22;33252;48.122;11.538;2022-11-27T10:00:43;3.20;99.90
47520;DHT22;33252;48.122;11.538;2022-11-27T10:03:13;3.10;99.90
47520;DHT22;33252;48.122;11.538;2022-11-27T10:09:00;3.20;99.90
47520;DHT22;33252;48.122;11.538;2022-11-27T10:22:43;3.60;99.90
47520;DHT22;33252;48.122;11.538;2022-11-27T10:25:20;3.70;99.90
47520;DHT22;33252;48.122;11.538;2022-11-27T10:30:28;3.60;99.90
47520;DHT22;33252;48.122;11.538;2022-11-27T10:32:57;3.60;99.90
47520;DHT22;33252;48.122;11.538;2022-11-27T10:35:27;3.90;99.90
47520;DHT22;33252;48.122;11.538;2022-11-27T10:38:09;3.90;99.90
47520;DHT22;33252;48.122;11.538;2022-11-27T10:40:43;3.90;99.90
47520;DHT22;33252;48.122;11.538;2022-11-27T10:43:21;4.10;99.90
47520;DHT22;33252;48.122;11.538;2022-11-27T10:48:19;4.10;99.90
47520;DHT22;33252;48.122;11.538;2022-11-27T10:50:46;4.10;99.90
47520;DHT22;33252;48.122;11.538;2022-11-27T10:53:33;4.10;99.90
47520;DHT22;33252;48.122;11.538;2022-11-27T11:01:19;4.50;99.90
47520;DHT22;33252;48.122;11.538;2022-11-27T11:03:45;4.40;99.90
47520;DHT22;33252;48.122;11.538;2022-11-27T11:06:24;4.20;99.90
47520;DHT22;33252;48.122;11.538;2022-11-27T11:09:12;4.20;99.90
47520;DHT22;33252;48.122;11.538;2022-11-27T11:11:39;4.10;99.90
47520;DHT22;33252;48.122;11.538;2022-11-27T11:14:24;4.20;99.90
47520;DHT22;33252;48.122;11.538;2022-11-27T11:16:51;4.20;99.90
47520;DHT22;33252;48.122;11.538;2022-11-27T11:19:30;4.30;99.90
47520;DHT22;33252;48.122;11.538;2022-11-27T11:21:58;4.50;99.90
47520;DHT22;33252;48.122;11.538;2022-11-27T11:24:27;4.40;99.90
47520;DHT22;33252;48.122;11.538;2022-11-27T11:27:15;4.30;99.90
47520;DHT22;33252;48.122;11.538;2022-11-27T11:29:53;4.30;99.90
47520;DHT22;33252;48.122;11.538;2022-11-27T11:34:52;4.30;99.90
47520;DHT22;33252;48.122;11.538;2022-11-27T11:37:25;4.30;99.90
47520;DHT22;33252;48.122;11.538;2022-11-27T11:42:27;4.30;99.90
47520;DHT22;33252;48.122;11.538;2022-11-27T11:45:00;4.40;99.90
47520;DHT22;33252;48.122;11.538;2022-11-27T11:47:28;4.60;99.90
47520;DHT22;33252;48.122;11.538;2022-11-27T11:49:54;4.70;99.90
47520;DHT22;33252;48.122;11.538;2022-11-27T11:54:57;4.50;99.90
47520;DHT22;33252;48.122;11.538;2022-11-27T12:00:14;4.60;99.90
47520;DHT22;33252;48.122;11.538;2022-11-27T12:03:12;4.60;99.90
47520;DHT22;33252;48.122;11.538;2022-11-27T12:11:27;4.50;99.90
47520;DHT22;33252;48.122;11.538;2022-11-27T12:19:45;4.20;99.90
47520;DHT22;33252;48.122;11.538;2022-11-27T12:28:31;4.10;99.90
47520;DHT22;33252;48.122;11.538;2022-11-27T12:33:54;4.00;99.90
47520;DHT22;33252;48.122;11.538;2022-11-27T12:42:13;3.80;99.90
47520;DHT22;33252;48.122;11.538;2022-11-27T12:45:01;3.80;99.90
47520;DHT22;33252;48.122;11.538;2022-11-27T12:50:48;3.60;99.90
47520;DHT22;33252;48.122;11.538;2022-11-27T13:01:32;3.70;99.90
47520;DHT22;33252;48.122;11.538;2022-11-27T13:06:33;3.70;99.90
47520;DHT22;33252;48.122;11.538;2022-11-27T13:09:12;3.60;99.90
47520;DHT22;33252;48.122;11.538;2022-11-27T13:11:40;3.60;99.90
47520;DHT22;33252;48.122;11.538;2022-11-27T13:14:19;3.60;99.90
47520;DHT22;33252;48.122;11.538;2022-11-27T13:17:01;3.50;99.90
47520;DHT22;33252;48.122;11.538;2022-11-27T13:19:32;3.50;99.90
47520;DHT22;33252;48.122;11.538;2022-11-27T13:22:03;3.60;99.90
47520;DHT22;33252;48.122;11.538;2022-11-27T13:24:30;3.40;99.90
47520;DHT22;33252;48.122;11.538;2022-11-27T13:27:10;3.50;99.90
47520;DHT22;33252;48.122;11.538;2022-11-27T13:29:42;3.40;99.90
47520;DHT22;33252;48.122;11.538;2022-11-27T13:32:21;3.40;99.90
47520;DHT22;33252;48.122;11.538;2022-11-27T13:34:49;3.30;99.90
47520;DHT22;33252;48.122;11.538;2022-11-27T13:37:37;3.20;99.90
47520;DHT22;33252;48.122;11.538;2022-11-27T13:40:19;3.20;99.90
47520;DHT22;33252;48.122;11.538;2022-11-27T13:42:51;3.10;99.90
47520;DHT22;33252;48.122;11.538;2022-11-27T13:45:21;3.20;99.90
47520;DHT22;33252;48.122;11.538;2022-11-27T13:47:48;3.20;99.90
47520;DHT22;33252;48.122;11.538;2022-11-27T13:50:18;3.30;99.90
47520;DHT22;33252;48.122;11.538;2022-11-27T13:52:59;3.40;99.90
47520;DHT22;33252;48.122;11.538;2022-11-27T13:55:31;3.30;99.90
47520;DHT22;33252;48.122;11.538;2022-11-27T13:57:59;3.30;99.90
47520;DHT22;33252;48.122;11.538;2022-11-27T14:03:00;3.30;99.90
47520;DHT22;33252;48.122;11.538;2022-11-27T14:05:43;3.20;99.90
47520;DHT22;33252;48.122;11.538;2022-11-27T14:10:49;3.10;99.90
47520;DHT22;33252;48.122;11.538;2022-11-27T14:13:15;3.10;99.90
47520;DHT22;33252;48.122;11.538;2022-11-27T14:15:42;3.20;99.90
47520;DHT22;33252;48.122;11.538;2022-11-27T14:18:17;3.10;99.90
47520;DHT22;33252;48.122;11.538;2022-11-27T14:23:52;3.20;99.90
47520;DHT22;33252;48.122;11.538;2022-11-27T14:26:22;3.20;99.90
47520;DHT22;33252;48.122;11.538;2022-11-27T14:28:58;3.10;99.90
47520;DHT22;33252;48.122;11.538;2022-11-27T14:32:10;3.10;99.90
47520;DHT22;33252;48.122;11.538;2022-11-27T14:38:10;3.00;99.90
47520;DHT22;33252;48.122;11.538;2022-11-27T14:40:47;2.90;99.90
47520;DHT22;33252;48.122;11.538;2022-11-27T14:43:18;2.80;99.90
47520;DHT22;33252;48.122;11.538;2022-11-27T14:46:32;2.90;99.90
47520;DHT22;33252;48.122;11.538;2022-11-27T14:49:21;2.90;99.90
47520;DHT22;33252;48.122;11.538;2022-11-27T14:51:52;2.80;99.90
47520;DHT22;33252;48.122;11.538;2022-11-27T14:54:50;2.80;99.90
47520;DHT22;33252;48.122;11.538;2022-11-27T14:57:29;2.80;99.90
47520;DHT22;33252;48.122;11.538;2022-11-27T15:04:22;2.80;99.90
47520;DHT22;33252;48.122;11.538;2022-11-27T15:06:56;2.70;99.90
47520;DHT22;33252;48.122;11.538;2022-11-27T15:09:51;2.70;99.90
47520;DHT22;33252;48.122;11.538;2022-11-27T15:19:27;2.60;99.90
47520;DHT22;33252;48.122;11.538;2022-11-27T15:21:54;2.60;99.90
47520;DHT22;33252;48.122;11.538;2022-11-27T15:24:32;2.50;99.90
47520;DHT22;33252;48.122;11.538;2022-11-27T15:29:43;2.50;99.90
47520;DHT22;33252;48.122;11.538;2022-11-27T15:32:18;2.40;99.90
47520;DHT22;33252;48.122;11.538;2022-11-27T15:34:45;2.40;99.90
47520;DHT22;33252;48.122;11.538;2022-11-27T15:39:56;2.30;99.90
47520;DHT22;33252;48.122;11.538;2022-11-27T15:42:23;2.30;99.90
47520;DHT22;33252;48.122;11.538;2022-11-27T15:44:57;2.20;99.90
47520;DHT22;33252;48.122;11.538;2022-11-27T15:47:30;2.30;99.90
47520;DHT22;33252;48.122;11.538;2022-11-27T15:49:58;2.30;99.90
47520;DHT22;33252;48.122;11.538;2022-11-27T15:52:24;2.30;99.90
47520;DHT22;33252;48.122;11.538;2022-11-27T15:54:50;2.30;99.90
47520;DHT22;33252;48.122;11.538;2022-11-27T15:57:16;2.40;99.90
47520;DHT22;33252;48.122;11.538;2022-11-27T15:59:42;2.40;99.90
47520;DHT22;33252;48.122;11.538;2022-11-27T16:02:09;2.40;99.90
47520;DHT22;33252;48.122;11.538;2022-11-27T16:04:36;2.40;99.90
47520;DHT22;33252;48.122;11.538;2022-11-27T16:07:02;2.40;99.90
47520;DHT22;33252;48.122;11.538;2022-11-27T16:09:28;2.40;99.90
47520;DHT22;33252;48.122;11.538;2022-11-27T16:11:54;2.30;99.90
47520;DHT22;33252;48.122;11.538;2022-11-27T16:14:19;2.30;99.90
47520;DHT22;33252;48.122;11.538;2022-11-27T16:16:45;2.20;99.90
47520;DHT22;33252;48.122;11.538;2022-11-27T16:19:11;2.10;99.90
47520;DHT22;33252;48.122;11.538;2022-11-27T16:21:40;1.90;99.90
47520;DHT22;33252;48.122;11.538;2022-11-27T16:24:07;1.80;99.90
47520;DHT22;33252;48.122;11.538;2022-11-27T16:26:33;1.90;99.90
47520;DHT22;33252;48.122;11.538;2022-11-27T16:28:58;1.80;99.90
47520;DHT22;33252;48.122;11.538;2022-11-27T16:31:25;1.80;99.90
47520;DHT22;33252;48.122;11.538;2022-11-27T16:33:51;1.80;99.90
47520;DHT22;33252;48.122;11.538;2022-11-27T16:36:18;1.80;99.90
47520;DHT22;33252;48.122;11.538;2022-11-27T16:38:44;1.70;99.90
47520;DHT22;33252;48.122;11.538;2022-11-27T16:41:15;1.70;99.90
47520;DHT22;33252;48.122;11.538;2022-11-27T16:43:43;1.70;99.90
47520;DHT22;33252;48.122;11.538;2022-11-27T16:46:12;1.70;99.90
47520;DHT22;33252;48.122;11.538;2022-11-27T16:48:40;1.70;99.90
47520;DHT22;33252;48.122;11.538;2022-11-27T16:51:09;1.60;99.90
47520;DHT22;33252;48.122;11.538;2022-11-27T16:53:40;1.70;99.90
47520;DHT22;33252;48.122;11.538;2022-11-27T16:56:07;1.70;99.90
47520;DHT22;33252;48.122;11.538;2022-11-27T16:58:35;1.70;99.90
47520;DHT22;33252;48.122;11.538;2022-11-27T17:01:04;1.80;99.90
47520;DHT22;33252;48.122;11.538;2022-11-27T17:03:30;1.70;99.90
47520;DHT22;33252;48.122;11.538;2022-11-27T17:05:59;1.70;99.90
47520;DHT22;33252;48.122;11.538;2022-11-27T17:08:25;1.60;99.90
47520;DHT22;33252;48.122;11.538;2022-11-27T17:10:51;1.60;99.90
47520;DHT22;33252;48.122;11.538;2022-11-27T17:13:17;1.50;99.90
47520;DHT22;33252;48.122;11.538;2022-11-27T17:15:43;1.60;99.90
47520;DHT22;33252;48.122;11.538;2022-11-27T17:18:09;1.60;99.90
47520;DHT22;33252;48.122;11.538;2022-11-27T17:20:35;1.50;99.90
47520;DHT22;33252;48.122;11.538;2022-11-27T17:23:01;1.40;99.90
47520;DHT22;33252;48.122;11.538;2022-11-27T17:25:29;1.50;99.90
47520;DHT22;33252;48.122;11.538;2022-11-27T17:27:54;1.40;99.90
47520;DHT22;33252;48.122;11.538;2022-11-27T17:30:20;1.40;99.90
47520;DHT22;33252;48.122;11.538;2022-11-27T17:32:46;1.40;99.90
47520;DHT22;33252;48.122;11.538;2022-11-27T17:35:12;1.30;99.90
47520;DHT22;33252;48.122;11.538;2022-11-27T17:37:37;1.40;99.90
47520;DHT22;33252;48.122;11.538;2022-11-27T17:40:03;1.40;99.90
47520;DHT22;33252;48.122;11.538;2022-11-27T17:42:29;1.30;99.90
47520;DHT22;33252;48.122;11.538;2022-11-27T17:44:55;1.30;99.90
47520;DHT22;33252;48.122;11.538;2022-11-27T17:47:21;1.40;99.90
47520;DHT22;33252;48.122;11.538;2022-11-27T17:49:47;1.30;99.90
47520;DHT22;33252;48.122;11.538;2022-11-27T17:52:12;1.40;99.90
47520;DHT22;33252;48.122;11.538;2022-11-27T17:54:38;1.40;99.90
47520;DHT22;33252;48.122;11.538;2022-11-27T17:57:03;1.30;99.90